createdAt,value
2022-09-26T00:01:25.412Z,6.38
2022-09-26T00:03:57.688Z,6.63
2022-09-26T00:06:26.827Z,5.97
2022-09-26T00:08:55.249Z,7.15
2022-09-26T00:11:26.841Z,6.57
2022-09-26T00:13:57.389Z,9.38
2022-09-26T00:16:26.486Z,7.80
2022-09-26T00:18:57.629Z,8.38
2022-09-26T00:21:27.050Z,8.00
2022-09-26T00:23:55.296Z,12.23
2022-09-26T00:26:24.695Z,8.55
2022-09-26T00:28:53.962Z,9.80
2022-09-26T00:31:25.606Z,7.43
2022-09-26T00:33:55.175Z,9.60
2022-09-26T00:36:37.097Z,9.85
2022-09-26T00:39:07.022Z,6.53
2022-09-26T00:41:35.307Z,7.47
2022-09-26T00:44:03.410Z,8.25
2022-09-26T00:46:35.120Z,9.57
2022-09-26T00:49:24.602Z,9.18
2022-09-26T00:51:56.002Z,10.68
2022-09-26T00:54:24.773Z,6.05
2022-09-26T00:56:56.814Z,11.35
2022-09-26T00:59:28.066Z,7.22
2022-09-26T01:01:59.064Z,7.35
2022-09-26T01:04:30.067Z,5.93
2022-09-26T01:07:00.325Z,8.13
2022-09-26T01:09:29.656Z,6.80
2022-09-26T01:11:58.143Z,8.63
2022-09-26T01:14:26.267Z,7.28
2022-09-26T01:16:54.350Z,8.18
2022-09-26T01:19:27.170Z,9.82
2022-09-26T01:22:28.058Z,7.30
2022-09-26T01:25:08.282Z,7.15
2022-09-26T01:27:48.216Z,7.32
2022-09-26T01:30:21.418Z,7.63
2022-09-26T01:33:03.688Z,7.97
2022-09-26T01:36:02.626Z,6.35
2022-09-26T01:38:48.406Z,9.38
2022-09-26T01:41:32.165Z,11.23
2022-09-26T01:44:08.182Z,10.02
2022-09-26T01:46:45.394Z,11.60
2022-09-26T01:49:19.620Z,9.57
2022-09-26T01:51:52.692Z,9.57
2022-09-26T01:54:24.328Z,9.38
2022-09-26T01:56:54.520Z,8.32
2022-09-26T01:59:28.226Z,8.23
2022-09-26T02:02:03.897Z,9.93
2022-09-26T02:04:37.922Z,8.55
2022-09-26T02:07:13.456Z,11.50
2022-09-26T02:09:45.718Z,10.77
2022-09-26T02:12:20.445Z,10.73
2022-09-26T02:14:49.962Z,11.07
2022-09-26T02:17:24.298Z,9.00
2022-09-26T02:19:57.761Z,9.77
2022-09-26T02:22:30.583Z,8.55
2022-09-26T02:24:58.666Z,7.28
2022-09-26T02:27:27.324Z,8.95
2022-09-26T02:29:55.745Z,10.45
2022-09-26T02:32:29.027Z,8.52
2022-09-26T02:34:57.911Z,9.45
2022-09-26T02:37:28.783Z,10.73
2022-09-26T02:39:58.029Z,13.77
2022-09-26T02:42:33.873Z,9.95
2022-09-26T02:45:26.404Z,17.45
2022-09-26T02:48:18.353Z,12.95
2022-09-26T02:51:00.836Z,11.68
2022-09-26T02:53:48.718Z,9.70
2022-09-26T02:56:27.879Z,10.23
2022-09-26T02:58:59.651Z,12.18
2022-09-26T03:01:40.062Z,12.40
2022-09-26T03:04:15.235Z,10.93
2022-09-26T03:06:47.302Z,16.17
2022-09-26T03:09:18.161Z,11.40
2022-09-26T03:11:48.370Z,10.40
2022-09-26T03:14:18.963Z,15.70
2022-09-26T03:16:51.014Z,13.23
2022-09-26T03:19:27.390Z,9.57
2022-09-26T03:21:55.547Z,10.90
2022-09-26T03:24:24.451Z,11.05
2022-09-26T03:26:53.007Z,10.90
2022-09-26T03:29:20.928Z,9.50
2022-09-26T03:31:50.335Z,10.77
2022-09-26T03:34:22.059Z,11.88
2022-09-26T03:36:51.305Z,7.45
2022-09-26T03:39:19.404Z,8.63
2022-09-26T03:41:57.484Z,9.05
2022-09-26T03:44:30.023Z,8.00
2022-09-26T03:47:13.494Z,11.98
2022-09-26T03:49:45.297Z,12.70
2022-09-26T03:52:14.253Z,11.43
2022-09-26T03:54:44.186Z,12.10
2022-09-26T03:57:13.330Z,9.90
2022-09-26T03:59:47.971Z,10.88
2022-09-26T04:02:18.220Z,10.52
2022-09-26T04:04:51.344Z,10.60
2022-09-26T04:07:19.349Z,14.40
2022-09-26T04:09:47.481Z,15.05
2022-09-26T04:12:15.369Z,10.07
2022-09-26T04:14:45.189Z,10.27
2022-09-26T04:17:13.793Z,11.48
2022-09-26T04:19:44.832Z,10.15
2022-09-26T04:22:15.293Z,9.43
2022-09-26T04:24:44.542Z,9.52
2022-09-26T04:27:15.442Z,9.88
2022-09-26T04:29:45.707Z,13.45
2022-09-26T04:32:32.290Z,11.25
2022-09-26T04:35:20.354Z,9.60
2022-09-26T04:37:51.556Z,10.75
2022-09-26T04:40:19.486Z,13.23
2022-09-26T04:43:14.074Z,10.55
2022-09-26T04:45:43.236Z,14.80
2022-09-26T04:48:11.530Z,9.77
2022-09-26T04:50:45.827Z,13.30
2022-09-26T04:53:16.133Z,14.30
2022-09-26T04:55:54.803Z,12.32
2022-09-26T04:58:22.770Z,10.82
2022-09-26T05:00:50.851Z,11.45
2022-09-26T05:03:29.544Z,9.85
2022-09-26T05:05:58.026Z,9.40
2022-09-26T05:08:27.418Z,11.45
2022-09-26T05:10:57.198Z,10.18
2022-09-26T05:13:27.455Z,10.50
2022-09-26T05:15:56.010Z,12.25
2022-09-26T05:18:24.284Z,9.63
2022-09-26T05:20:52.787Z,12.73
2022-09-26T05:23:40.850Z,10.98
2022-09-26T05:26:21.279Z,16.23
2022-09-26T05:28:52.252Z,9.32
2022-09-26T05:31:26.182Z,9.55
2022-09-26T05:33:56.634Z,11.98
2022-09-26T05:36:24.754Z,10.25
2022-09-26T05:38:53.310Z,10.57
2022-09-26T05:41:23.023Z,10.52
2022-09-26T05:43:52.147Z,12.32
2022-09-26T05:46:20.014Z,12.57
2022-09-26T05:48:51.673Z,8.45
2022-09-26T05:51:23.459Z,9.85
2022-09-26T05:53:51.592Z,11.73
2022-09-26T05:56:25.830Z,7.82
2022-09-26T05:59:14.162Z,10.38
2022-09-26T06:02:08.223Z,9.05
2022-09-26T06:05:02.355Z,8.13
2022-09-26T06:07:48.834Z,10.45
2022-09-26T06:10:34.024Z,8.82
2022-09-26T06:13:04.152Z,10.50
2022-09-26T06:15:36.418Z,13.60
2022-09-26T06:18:06.054Z,9.60
2022-09-26T06:20:35.005Z,9.10
2022-09-26T06:23:04.199Z,9.02
2022-09-26T06:25:33.196Z,7.90
2022-09-26T06:28:05.579Z,8.15
2022-09-26T06:30:33.783Z,8.93
2022-09-26T06:33:13.033Z,8.13
2022-09-26T06:36:01.388Z,8.63
2022-09-26T06:38:34.892Z,8.82
2022-09-26T06:41:04.121Z,9.90
2022-09-26T06:43:33.913Z,6.47
2022-09-26T06:46:10.487Z,11.15
2022-09-26T06:48:49.766Z,9.35
2022-09-26T06:51:22.856Z,9.52
2022-09-26T06:53:50.648Z,8.27
2022-09-26T06:56:22.050Z,8.52
2022-09-26T06:58:51.404Z,7.85
2022-09-26T07:01:23.710Z,9.73
2022-09-26T07:04:02.602Z,9.70
2022-09-26T07:06:39.434Z,7.03
2022-09-26T07:09:12.245Z,11.10
2022-09-26T07:12:14.798Z,9.40
2022-09-26T07:14:47.934Z,13.95
2022-09-26T07:17:30.285Z,11.80
2022-09-26T07:20:26.975Z,10.93
2022-09-26T07:23:22.689Z,9.10
2022-09-26T07:25:51.958Z,8.40
2022-09-26T07:28:19.919Z,6.47
2022-09-26T07:30:51.415Z,8.75
2022-09-26T07:33:48.510Z,7.18
2022-09-26T07:36:18.398Z,6.28
2022-09-26T07:38:48.460Z,6.35
2022-09-26T07:41:17.986Z,6.97
2022-09-26T07:44:46.000Z,7.88
2022-09-26T07:46:54.271Z,5.80
2022-09-26T07:49:40.517Z,8.90
2022-09-26T07:52:12.288Z,7.47
2022-09-26T07:54:52.041Z,7.68
2022-09-26T07:57:41.667Z,7.07
2022-09-26T08:00:40.236Z,8.02
2022-09-26T08:03:35.678Z,7.20
2022-09-26T08:06:12.304Z,6.80
2022-09-26T08:08:41.331Z,8.65
2022-09-26T08:11:28.292Z,6.55
2022-09-26T08:14:09.951Z,8.88
2022-09-26T08:16:48.009Z,6.40
2022-09-26T08:19:17.740Z,9.02
2022-09-26T08:21:46.517Z,7.88
2022-09-26T08:24:14.691Z,5.15
2022-09-26T08:27:07.660Z,4.53
2022-09-26T08:29:39.236Z,4.63
2022-09-26T08:32:07.202Z,6.03
2022-09-26T08:34:38.963Z,6.50
2022-09-26T08:37:38.214Z,5.28
2022-09-26T08:40:33.674Z,6.40
2022-09-26T08:43:43.995Z,4.28
2022-09-26T08:46:46.139Z,5.32
2022-09-26T08:49:44.229Z,4.95
2022-09-26T08:52:31.361Z,4.10
2022-09-26T08:55:03.062Z,3.05
2022-09-26T08:57:37.612Z,4.55
2022-09-26T09:00:19.096Z,11.88
2022-09-26T09:03:05.503Z,3.67
2022-09-26T09:05:40.965Z,3.67
2022-09-26T09:08:14.663Z,2.70
2022-09-26T09:11:04.284Z,4.38
2022-09-26T09:13:45.606Z,2.90
2022-09-26T09:16:56.420Z,4.22
2022-09-26T09:19:46.808Z,3.83
2022-09-26T09:23:01.765Z,4.15
2022-09-26T09:25:42.935Z,3.90
2022-09-26T09:28:24.694Z,3.42
2022-09-26T09:30:57.659Z,3.33
2022-09-26T09:33:32.911Z,1.77
2022-09-26T09:36:25.895Z,3.05
2022-09-26T09:39:20.825Z,3.88
2022-09-26T09:41:59.167Z,3.38
2022-09-26T09:44:36.900Z,4.65
2022-09-26T09:47:12.613Z,1.92
2022-09-26T09:49:41.022Z,4.38
2022-09-26T09:52:21.404Z,2.97
2022-09-26T09:55:06.963Z,2.78
2022-09-26T09:57:58.068Z,3.53
2022-09-26T10:00:27.652Z,3.72
2022-09-26T10:03:17.877Z,3.25
2022-09-26T10:05:48.098Z,2.40
2022-09-26T10:08:31.296Z,2.05
2022-09-26T10:11:28.500Z,2.55
2022-09-26T10:14:28.634Z,2.90
2022-09-26T10:17:20.239Z,1.70
2022-09-26T10:20:10.183Z,3.92
2022-09-26T10:22:45.398Z,3.72
2022-09-26T10:25:26.626Z,3.38
2022-09-26T10:27:59.176Z,4.45
2022-09-26T10:30:33.150Z,4.05
2022-09-26T10:33:06.095Z,5.47
2022-09-26T10:35:49.008Z,5.25
2022-09-26T10:38:23.869Z,4.43
2022-09-26T10:40:59.720Z,2.15
2022-09-26T10:43:33.896Z,3.15
2022-09-26T10:46:33.353Z,2.85
2022-09-26T10:49:25.107Z,5.60
2022-09-26T10:52:28.920Z,3.78
2022-09-26T10:55:03.793Z,4.05
2022-09-26T10:57:37.466Z,1.52
2022-09-26T11:00:09.076Z,5.65
2022-09-26T11:02:37.651Z,2.67
2022-09-26T11:05:24.667Z,4.00
2022-09-26T11:08:10.122Z,4.53
2022-09-26T11:10:55.674Z,5.78
2022-09-26T11:13:47.864Z,1.30
2022-09-26T11:16:20.169Z,3.97
2022-09-26T11:19:02.444Z,2.40
2022-09-26T11:21:41.217Z,3.38
2022-09-26T11:24:16.815Z,2.95
2022-09-26T11:26:53.431Z,3.13
2022-09-26T11:29:33.293Z,1.88
2022-09-26T11:32:10.408Z,2.03
2022-09-26T11:35:02.139Z,2.25
2022-09-26T11:38:00.023Z,4.57
2022-09-26T11:40:48.644Z,2.92
2022-09-26T11:43:35.169Z,1.83
2022-09-26T11:46:33.060Z,2.00
2022-09-26T11:49:39.098Z,2.85
2022-09-26T11:52:53.576Z,3.92
2022-09-26T11:55:31.004Z,2.38
2022-09-26T11:58:11.614Z,3.33
2022-09-26T12:00:49.843Z,3.15
2022-09-26T12:03:39.971Z,1.88
2022-09-26T12:06:21.327Z,3.83
2022-09-26T12:09:10.642Z,2.97
2022-09-26T12:11:49.724Z,3.20
2022-09-26T12:14:35.298Z,2.03
2022-09-26T12:17:12.799Z,4.03
2022-09-26T12:19:46.898Z,3.67
2022-09-26T12:22:31.156Z,2.97
2022-09-26T12:25:20.318Z,3.17
2022-09-26T12:27:59.096Z,3.55
2022-09-26T12:30:33.402Z,3.10
2022-09-26T12:33:27.673Z,4.18
2022-09-26T12:36:06.624Z,1.27
2022-09-26T12:39:00.613Z,4.03
2022-09-26T12:41:45.740Z,2.30
2022-09-26T12:44:37.068Z,2.83
2022-09-26T12:47:40.372Z,5.28
2022-09-26T12:50:18.118Z,3.10
2022-09-26T12:53:17.267Z,5.60
2022-09-26T12:55:53.635Z,4.65
2022-09-26T12:58:34.543Z,2.08
2022-09-26T13:01:11.967Z,2.17
2022-09-26T13:04:02.593Z,3.03
2022-09-26T13:07:17.207Z,3.70
2022-09-26T13:10:03.959Z,2.97
2022-09-26T13:12:51.154Z,3.47
2022-09-26T13:15:26.177Z,4.60
2022-09-26T13:17:59.348Z,3.00
2022-09-26T13:20:32.599Z,2.33
2022-09-26T13:23:07.811Z,4.30
2022-09-26T13:25:49.334Z,2.42
2022-09-26T13:28:24.203Z,3.33
2022-09-26T13:30:57.958Z,2.25
2022-09-26T13:33:32.382Z,3.78
2022-09-26T13:36:03.462Z,3.55
2022-09-26T13:38:51.548Z,4.60
2022-09-26T13:41:33.878Z,3.17
2022-09-26T13:44:13.107Z,3.45
2022-09-26T13:46:52.264Z,1.60
2022-09-26T13:49:33.804Z,2.05
2022-09-26T13:52:20.128Z,2.75
2022-09-26T13:54:58.982Z,3.70
2022-09-26T13:57:46.486Z,5.60
2022-09-26T14:00:49.128Z,3.35
2022-09-26T14:03:39.133Z,4.45
2022-09-26T14:06:34.158Z,2.25
2022-09-26T14:09:27.043Z,3.75
2022-09-26T14:12:22.364Z,4.28
2022-09-26T14:15:15.382Z,3.47
2022-09-26T14:18:12.473Z,2.42
2022-09-26T14:20:57.459Z,2.35
2022-09-26T14:23:37.577Z,4.65
2022-09-26T14:26:07.582Z,2.95
2022-09-26T14:28:37.110Z,3.30
2022-09-26T14:31:44.048Z,2.95
2022-09-26T14:34:21.067Z,1.80
2022-09-26T14:36:51.753Z,4.78
2022-09-26T14:39:35.469Z,2.85
2022-09-26T14:42:20.207Z,3.20
2022-09-26T14:44:58.932Z,4.53
2022-09-26T14:47:29.542Z,2.60
2022-09-26T14:50:03.152Z,1.77
2022-09-26T14:52:33.893Z,4.03
2022-09-26T14:55:06.155Z,1.60
2022-09-26T14:57:35.886Z,1.95
2022-09-26T15:00:05.128Z,1.63
2022-09-26T15:02:43.744Z,3.53
2022-09-26T15:05:23.369Z,4.53
2022-09-26T15:07:53.921Z,3.10
2022-09-26T15:10:26.142Z,3.92
2022-09-26T15:13:10.775Z,3.72
2022-09-26T15:15:51.672Z,3.35
2022-09-26T15:18:31.308Z,3.58
2022-09-26T15:21:05.102Z,2.75
2022-09-26T15:23:45.352Z,2.78
2022-09-26T15:26:15.746Z,5.15
2022-09-26T15:28:44.192Z,1.25
2022-09-26T15:31:26.868Z,2.58
2022-09-26T15:34:02.519Z,3.00
2022-09-26T15:36:33.235Z,4.00
2022-09-26T15:39:08.261Z,3.90
2022-09-26T15:42:03.023Z,2.03
2022-09-26T15:44:35.486Z,1.75
2022-09-26T15:47:27.278Z,3.17
2022-09-26T15:50:04.925Z,2.63
2022-09-26T15:52:35.291Z,2.25
2022-09-26T15:55:33.623Z,4.15
2022-09-26T15:58:06.671Z,2.30
2022-09-26T16:00:38.180Z,3.75
2022-09-26T16:03:34.414Z,2.95
2022-09-26T16:06:02.882Z,4.18
2022-09-26T16:08:39.008Z,3.15
2022-09-26T16:11:08.865Z,4.47
2022-09-26T16:13:41.619Z,1.95
2022-09-26T16:16:19.120Z,3.35
2022-09-26T16:18:53.152Z,4.15
2022-09-26T16:21:22.518Z,5.72
2022-09-26T16:23:53.267Z,4.30
2022-09-26T16:26:43.047Z,3.70
2022-09-26T16:29:11.143Z,5.53
2022-09-26T16:31:46.969Z,4.70
2022-09-26T16:34:21.896Z,3.97
2022-09-26T16:36:50.730Z,3.20
2022-09-26T16:39:22.511Z,3.72
2022-09-26T16:42:02.449Z,2.72
2022-09-26T16:44:36.003Z,4.78
2022-09-26T16:47:07.435Z,4.13
2022-09-26T16:49:45.565Z,3.22
2022-09-26T16:52:31.267Z,3.45
2022-09-26T16:55:00.638Z,4.95
2022-09-26T16:57:32.030Z,3.00
2022-09-26T17:00:24.999Z,1.92
2022-09-26T17:02:52.934Z,5.45
2022-09-26T17:05:45.210Z,2.45
2022-09-26T17:08:13.110Z,3.05
2022-09-26T17:10:43.360Z,2.40
2022-09-26T17:13:16.951Z,7.97
2022-09-26T17:15:48.509Z,5.28
2022-09-26T17:18:21.084Z,2.92
2022-09-26T17:20:49.982Z,3.08
2022-09-26T17:23:38.616Z,3.97
2022-09-26T17:26:13.151Z,7.32
2022-09-26T17:28:43.511Z,3.85
2022-09-26T17:31:19.443Z,5.25
2022-09-26T17:33:49.837Z,3.47
2022-09-26T17:36:23.668Z,6.18
2022-09-26T17:38:51.886Z,4.25
2022-09-26T17:41:19.888Z,3.78
2022-09-26T17:43:50.055Z,5.28
2022-09-26T17:46:17.990Z,5.90
2022-09-26T17:48:46.209Z,5.78
2022-09-26T17:51:15.075Z,7.57
2022-09-26T17:53:50.509Z,4.68
2022-09-26T17:56:20.200Z,6.25
2022-09-26T17:58:51.753Z,5.57
2022-09-26T18:01:23.947Z,7.88
2022-09-26T18:03:55.507Z,14.18
2022-09-26T18:06:25.842Z,11.50
2022-09-26T18:08:54.960Z,3.95
2022-09-26T18:11:22.903Z,3.65
2022-09-26T18:13:54.597Z,4.18
2022-09-26T18:16:23.347Z,5.75
2022-09-26T18:18:51.735Z,5.20
2022-09-26T18:21:20.316Z,4.22
2022-09-26T18:23:52.631Z,4.32
2022-09-26T18:26:29.092Z,4.55
2022-09-26T18:29:00.262Z,2.85
2022-09-26T18:31:31.860Z,2.58
2022-09-26T18:34:03.037Z,2.70
2022-09-26T18:36:33.180Z,1.98
2022-09-26T18:39:01.498Z,2.08
2022-09-26T18:41:29.596Z,1.88
2022-09-26T18:44:02.771Z,1.65
2022-09-26T18:46:31.458Z,2.08
2022-09-26T18:49:06.203Z,5.43
2022-09-26T18:51:35.064Z,2.08
2022-09-26T18:54:10.751Z,1.23
2022-09-26T18:56:56.885Z,2.17
2022-09-26T18:59:29.007Z,2.97
2022-09-26T19:01:59.458Z,1.70
2022-09-26T19:04:30.323Z,1.83
2022-09-26T19:07:01.893Z,2.40
2022-09-26T19:09:33.946Z,1.90
2022-09-26T19:12:03.175Z,1.75
2022-09-26T19:14:33.149Z,2.42
2022-09-26T19:17:01.377Z,1.50
2022-09-26T19:19:32.485Z,3.40
2022-09-26T19:22:07.981Z,4.10
2022-09-26T19:24:39.625Z,1.08
2022-09-26T19:27:10.479Z,1.98
2022-09-26T19:29:43.556Z,1.48
2022-09-26T19:32:18.227Z,2.08
2022-09-26T19:34:50.999Z,1.55
2022-09-26T19:37:20.251Z,2.83
2022-09-26T19:39:48.218Z,1.92
2022-09-26T19:42:16.313Z,1.30
2022-09-26T19:44:46.023Z,3.05
2022-09-26T19:47:20.029Z,2.40
2022-09-26T19:49:49.334Z,0.90
2022-09-26T19:52:19.683Z,2.17
2022-09-26T19:54:50.438Z,3.28
2022-09-26T19:57:19.964Z,19.83
2022-09-26T19:59:50.134Z,3.97
2022-09-26T20:02:20.601Z,6.53
2022-09-26T20:04:49.856Z,1.90
2022-09-26T20:07:21.003Z,1.52
2022-09-26T20:09:49.110Z,1.90
2022-09-26T20:12:17.266Z,1.73
2022-09-26T20:14:47.867Z,1.80
2022-09-26T20:17:24.324Z,3.90
2022-09-26T20:19:58.640Z,1.25
2022-09-26T20:22:27.397Z,1.17
2022-09-26T20:24:56.168Z,1.27
2022-09-26T20:27:28.114Z,2.10
2022-09-26T20:30:14.302Z,1.42
2022-09-26T20:32:43.934Z,1.58
2022-09-26T20:35:15.633Z,1.02
2022-09-26T20:37:45.514Z,1.30
2022-09-26T20:40:18.607Z,1.10
2022-09-26T20:42:56.045Z,2.13
2022-09-26T20:45:29.611Z,1.38
2022-09-26T20:47:59.640Z,2.22
2022-09-26T20:50:34.228Z,1.30
2022-09-26T20:53:02.720Z,2.30
2022-09-26T20:55:32.479Z,1.23
2022-09-26T20:58:03.774Z,1.27
2022-09-26T21:00:32.464Z,2.35
2022-09-26T21:03:02.052Z,0.63
2022-09-26T21:05:30.237Z,1.45
2022-09-26T21:08:00.137Z,2.33
2022-09-26T21:10:30.224Z,0.65
2022-09-26T21:12:58.956Z,0.75
2022-09-26T21:15:29.050Z,1.73
2022-09-26T21:17:57.471Z,1.02
2022-09-26T21:20:29.309Z,0.85
2022-09-26T21:23:10.484Z,1.92
2022-09-26T21:25:41.086Z,1.48
2022-09-26T21:28:22.868Z,38.10
2022-09-26T21:30:52.121Z,4.80
2022-09-26T21:33:21.871Z,3.45
2022-09-26T21:35:51.627Z,2.70
2022-09-26T21:38:21.528Z,3.33
2022-09-26T21:40:55.117Z,0.70
2022-09-26T21:43:26.825Z,1.30
2022-09-26T21:45:54.736Z,1.55
2022-09-26T21:48:23.339Z,1.95
2022-09-26T21:50:58.086Z,1.45
2022-09-26T21:53:32.072Z,1.15
2022-09-26T21:56:07.377Z,2.08
2022-09-26T21:58:39.219Z,1.00
2022-09-26T22:01:07.254Z,0.98
2022-09-26T22:03:35.756Z,2.15
2022-09-26T22:06:07.505Z,4.28
2022-09-26T22:08:35.669Z,3.25
2022-09-26T22:11:04.066Z,2.47
2022-09-26T22:13:33.082Z,3.42
2022-09-26T22:16:06.051Z,2.95
2022-09-26T22:18:34.830Z,2.20
2022-09-26T22:21:04.747Z,0.93
2022-09-26T22:23:34.200Z,1.10
2022-09-26T22:26:02.833Z,1.10
2022-09-26T22:28:30.940Z,1.05
2022-09-26T22:31:02.404Z,1.73
2022-09-26T22:33:30.590Z,1.77
2022-09-26T22:35:58.763Z,2.20
2022-09-26T22:38:26.805Z,2.45
2022-09-26T22:41:00.126Z,2.05
2022-09-26T22:43:28.470Z,1.83
2022-09-26T22:46:02.036Z,2.25
2022-09-26T22:48:32.170Z,1.35
2022-09-26T22:51:00.355Z,2.70
2022-09-26T22:53:28.611Z,1.17
2022-09-26T22:55:58.173Z,2.20
2022-09-26T22:58:27.543Z,2.88
2022-09-26T23:00:55.698Z,2.60
2022-09-26T23:03:23.873Z,1.20
2022-09-26T23:05:51.804Z,1.98
2022-09-26T23:08:19.767Z,0.98
2022-09-26T23:10:50.720Z,0.90
2022-09-26T23:13:19.096Z,1.05
2022-09-26T23:15:48.751Z,1.40
2022-09-26T23:18:16.743Z,2.33
2022-09-26T23:20:45.285Z,2.65
2022-09-26T23:23:14.763Z,1.33
2022-09-26T23:25:47.182Z,1.10
2022-09-26T23:28:15.446Z,1.35
2022-09-26T23:30:44.151Z,1.77
2022-09-26T23:33:14.230Z,1.83
2022-09-26T23:35:42.109Z,1.48
2022-09-26T23:38:10.089Z,1.63
2022-09-26T23:40:38.926Z,1.95
2022-09-26T23:43:06.829Z,3.33
2022-09-26T23:45:36.670Z,1.35
2022-09-26T23:48:04.754Z,1.60
2022-09-26T23:50:34.781Z,3.33
2022-09-26T23:53:06.444Z,1.10
2022-09-26T23:55:35.553Z,2.97
2022-09-26T23:58:03.689Z,3.17
